Time;durP1;ratioP1;P1;durP2;ratioP2;P2;SDS_P1;SDS_P2;PMS_P1;PMS_P2;Temp;Humidity;BMP_temperature;BMP_pressure;BME280_temperature;BME280_humidity;BME280_pressure;Samples;Min_cycle;Max_cycle;Signal;HPM_P1;HPM_P2
2022/12/22 03:27:11;;;;;;;10.18;7.65;;;;;;;8.32;79.50;96066.88;4997798;28;20141;-81
2022/12/22 03:29:47;;;;;;;10.55;7.05;;;;;;;8.31;79.52;96058.28;4996264;28;20105;-81
2022/12/22 03:32:33;;;;;;;9.30;6.90;;;;;;;8.32;79.63;96052.09;4982150;28;20122;-81
2022/12/22 03:35:13;;;;;;;9.07;6.68;;;;;;;8.33;79.76;96053.72;4996748;28;20133;-81
2022/12/22 03:37:54;;;;;;;7.47;6.22;;;;;;;8.33;79.53;96042.50;4996781;28;20056;-81
2022/12/22 03:40:33;;;;;;;9.32;6.45;;;;;;;8.33;79.83;96037.31;4997023;28;20046;-81
2022/12/22 03:49:08;;;;;;;7.82;6.60;;;;;;;8.37;79.73;96054.16;4996442;28;20105;-80
2022/12/22 03:52:00;;;;;;;9.68;6.60;;;;;;;8.38;79.70;96048.78;4996317;28;20053;-81
2022/12/22 03:54:34;;;;;;;7.53;6.15;;;;;;;8.38;79.24;96046.19;4996219;28;20057;-81
2022/12/22 03:57:09;;;;;;;8.20;6.40;;;;;;;8.37;79.41;96034.16;4996568;28;20054;-81
2022/12/22 04:12:57;;;;;;;;;;;;;;;8.48;79.36;96008.72;4998309;28;20062;-82
2022/12/22 04:15:45;;;;;;;5.55;4.32;;;;;;;8.47;79.09;96010.53;4999534;28;19972;-81
2022/12/22 04:21:22;;;;;;;5.70;4.68;;;;;;;8.48;79.25;95999.13;4958193;29;20055;-81
2022/12/22 04:27:41;;;;;;;5.28;4.78;;;;;;;8.47;79.00;95989.72;4958312;29;20062;-82
2022/12/22 04:30:29;;;;;;;6.65;4.68;;;;;;;8.45;79.05;95991.72;4958118;29;20054;-81
2022/12/22 04:33:08;;;;;;;6.85;5.20;;;;;;;8.44;79.00;95992.72;4958309;28;20059;-81
2022/12/22 04:35:57;;;;;;;6.45;5.00;;;;;;;8.42;78.97;95999.88;4958237;29;20061;-81
2022/12/22 04:38:47;;;;;;;5.10;4.00;;;;;;;8.42;78.75;96005.09;4957661;29;20063;-81
2022/12/22 04:41:38;;;;;;;5.20;4.15;;;;;;;8.43;78.82;96004.09;4958758;29;20043;-81
2022/12/22 04:44:28;;;;;;;9.77;5.25;;;;;;;8.44;79.10;95992.72;4957282;28;20097;-82
2022/12/22 04:50:50;;;;;;;7.68;4.78;;;;;;;8.45;79.01;96007.31;4991270;28;20117;-81
2022/12/22 05:02:16;;;;;;;10.32;5.47;;;;;;;8.48;79.54;95999.13;5016218;28;20042;-82
2022/12/22 05:08:52;;;;;;;6.55;4.97;;;;;;;8.56;79.43;95986.03;5016703;28;20401;-81
2022/12/22 05:11:42;;;;;;;7.50;4.63;;;;;;;8.57;79.20;95987.66;5018489;28;20046;-81
2022/12/22 05:20:49;;;;;;;7.93;4.22;;;;;;;8.62;79.12;95984.50;5035538;28;20049;-82
2022/12/22 05:26:47;;;;;;;6.95;4.43;;;;;;;8.65;78.78;95982.31;4997118;28;19949;-81
2022/12/22 05:29:35;;;;;;;5.45;4.35;;;;;;;8.68;79.09;95978.56;4954162;28;20082;-81
2022/12/22 05:32:33;;;;;;;3.72;3.33;;;;;;;8.71;79.09;95972.19;4998289;28;20104;-81
2022/12/22 05:37:58;;;;;;;3.55;3.13;;;;;;;8.78;78.81;95965.25;4997786;28;20050;-82
2022/12/22 05:40:40;;;;;;;5.95;3.15;;;;;;;8.79;78.75;95965.06;4981920;28;20054;-81
2022/12/22 05:43:18;;;;;;;3.45;2.60;;;;;;;8.83;78.80;95965.47;5000025;28;20056;-81
2022/12/22 05:46:22;;;;;;;4.05;3.65;;;;;;;8.85;78.61;95971.31;4998377;28;20053;-81
2022/12/22 05:49:08;;;;;;;4.57;3.28;;;;;;;8.87;78.37;95967.53;4998489;28;20050;-81
2022/12/22 05:51:54;;;;;;;5.00;4.18;;;;;;;8.90;78.41;95968.97;4997637;28;20539;-81
2022/12/22 05:54:35;;;;;;;6.15;3.47;;;;;;;8.92;78.77;95959.19;4998723;28;20065;-82
2022/12/22 06:00:33;;;;;;;4.53;3.72;;;;;;;8.97;78.66;95974.22;5016013;28;20060;-82
2022/12/22 06:03:33;;;;;;;3.70;2.83;;;;;;;8.98;78.36;95976.63;5017295;28;20050;-82
2022/12/22 06:10:03;;;;;;;4.28;2.47;;;;;;;9.03;78.47;95971.69;5007964;28;20050;-82
2022/12/22 06:15:34;;;;;;;4.78;3.10;;;;;;;9.08;78.41;95963.31;5006464;28;20137;-80
2022/12/22 06:18:03;;;;;;;4.68;2.22;;;;;;;9.12;78.35;95966.31;4995482;28;20104;-81
2022/12/22 06:20:31;;;;;;;4.65;1.70;;;;;;;9.14;78.57;95959.13;4998776;28;20558;-81
2022/12/22 06:23:00;;;;;;;1.60;1.50;;;;;;;9.16;78.39;95964.97;5003938;28;20126;-82
2022/12/22 06:25:30;;;;;;;3.10;1.75;;;;;;;9.18;78.15;95963.81;5009348;28;20050;-81
2022/12/22 06:27:59;;;;;;;3.38;1.63;;;;;;;9.21;78.15;95957.41;4994987;28;20050;-81
2022/12/22 06:30:28;;;;;;;2.33;1.98;;;;;;;9.23;78.32;95963.25;4998301;28;20058;-81
2022/12/22 06:33:02;;;;;;;2.90;1.42;;;;;;;9.26;78.11;95960.25;4995730;28;20560;-81
2022/12/22 06:35:31;;;;;;;4.28;1.40;;;;;;;9.28;77.85;95964.25;5006657;28;20050;-81
2022/12/22 06:37:59;;;;;;;1.77;1.60;;;;;;;9.31;77.97;95957.06;4996034;28;20559;-81
2022/12/22 06:40:28;;;;;;;2.75;1.35;;;;;;;9.32;77.83;95951.69;5016519;28;20050;-81
2022/12/22 06:43:09;;;;;;;1.80;1.15;;;;;;;9.33;77.70;95948.06;5023486;28;20100;-81
2022/12/22 06:45:40;;;;;;;3.40;1.10;;;;;;;9.34;77.42;95951.50;5003616;28;20101;-82
2022/12/22 06:48:09;;;;;;;2.35;1.23;;;;;;;9.35;77.04;95930.47;4997049;28;20104;-82
2022/12/22 06:50:39;;;;;;;3.70;1.20;;;;;;;9.35;77.04;95938.28;5002483;28;20435;-81
2022/12/22 06:53:10;;;;;;;1.98;0.75;;;;;;;9.37;76.98;95935.50;5013460;28;20045;-81
2022/12/22 06:55:42;;;;;;;2.58;1.00;;;;;;;9.37;76.86;95932.91;4994889;28;20081;-82
2022/12/22 06:58:12;;;;;;;5.85;2.13;;;;;;;9.38;76.59;95931.88;4994869;28;20060;-81
2022/12/22 07:00:42;;;;;;;3.13;1.90;;;;;;;9.38;76.64;95932.72;4999045;28;20053;-81
2022/12/22 07:03:10;;;;;;;5.18;2.30;;;;;;;9.35;76.60;95942.69;5013035;28;20100;-80
2022/12/22 07:05:39;;;;;;;5.45;2.10;;;;;;;9.33;76.53;95944.69;5000045;28;20058;-81
2022/12/22 07:08:08;;;;;;;4.97;2.60;;;;;;;9.32;76.75;95959.50;5002666;28;20128;-81
2022/12/22 07:13:22;;;;;;;3.08;2.13;;;;;;;9.32;76.57;95969.13;5020318;28;20129;-82
2022/12/22 07:15:51;;;;;;;4.40;1.50;;;;;;;9.32;76.52;95964.69;5018355;28;20057;-81
2022/12/22 07:18:28;;;;;;;2.35;1.15;;;;;;;9.32;76.33;95969.91;5003488;28;20130;-81
2022/12/22 07:20:56;;;;;;;2.92;1.67;;;;;;;9.33;76.23;95971.50;5004485;28;20577;-81
2022/12/22 07:23:26;;;;;;;3.70;1.27;;;;;;;9.35;75.91;95966.91;4998453;28;20050;-82
2022/12/22 07:25:54;;;;;;;3.40;1.02;;;;;;;9.37;75.89;95961.53;4997104;28;20096;-80
2022/12/22 07:29:25;;;;;;;2.85;0.80;;;;;;;9.41;75.00;95966.16;5006829;28;20041;-82
2022/12/22 07:31:53;;;;;;;7.00;1.00;;;;;;;9.45;75.05;95948.38;4996720;28;20108;-81
2022/12/22 07:34:21;;;;;;;3.95;1.08;;;;;;;9.48;74.36;95954.00;5009859;28;20061;-81
2022/12/22 07:36:49;;;;;;;3.25;1.20;;;;;;;9.51;74.77;95947.63;5013214;28;20052;-82
2022/12/22 07:39:17;;;;;;;3.50;1.17;;;;;;;9.54;74.10;95959.44;5010201;28;20117;-81
2022/12/22 07:44:44;;;;;;;4.60;0.90;;;;;;;9.62;73.66;95961.88;5724334;23;20050;-81
2022/12/22 07:47:12;;;;;;;2.85;1.13;;;;;;;9.66;73.54;95960.50;4997642;28;20576;-81
2022/12/22 07:52:30;;;;;;;5.72;1.00;;;;;;;9.74;73.08;95957.75;4991404;28;20101;-81
2022/12/22 07:54:58;;;;;;;4.50;1.20;;;;;;;9.76;72.81;95958.38;4992052;28;20050;-82
2022/12/22 07:57:25;;;;;;;4.00;0.90;;;;;;;9.79;72.37;95960.56;4985169;28;20054;-82
2022/12/22 07:59:54;;;;;;;3.95;0.90;;;;;;;9.81;72.56;95955.97;4972149;28;20047;-81
2022/12/22 08:02:22;;;;;;;6.30;1.17;;;;;;;9.82;72.77;95970.63;4972771;28;20065;-82
2022/12/22 08:10:39;;;;;;;3.92;1.50;;;;;;;9.92;72.70;95983.28;4994993;28;20051;-81
2022/12/22 08:13:08;;;;;;;4.40;1.00;;;;;;;9.94;72.12;95989.13;4982076;28;20110;-81
2022/12/22 08:15:38;;;;;;;3.05;0.98;;;;;;;9.97;71.35;95998.34;4977953;28;20066;-81
2022/12/22 08:18:05;;;;;;;3.95;1.13;;;;;;;9.99;70.78;95998.97;4974018;28;20058;-81
2022/12/22 08:20:33;;;;;;;4.10;1.13;;;;;;;10.00;70.43;95979.75;4973020;28;20039;-82
2022/12/22 08:23:01;;;;;;;5.50;1.65;;;;;;;10.02;70.56;95986.38;4973707;28;20067;-81
2022/12/22 08:25:30;;;;;;;4.60;1.58;;;;;;;10.04;69.56;95989.59;4973656;28;20051;-81
2022/12/22 08:27:58;;;;;;;8.23;1.40;;;;;;;10.07;69.71;96004.03;4973971;28;20425;-81
2022/12/22 08:30:27;;;;;;;5.38;1.30;;;;;;;10.08;69.59;95997.81;4972974;28;20586;-81
2022/12/22 08:32:56;;;;;;;4.45;1.00;;;;;;;10.11;69.89;96000.03;4973938;28;20129;-81
2022/12/22 08:35:24;;;;;;;5.28;1.27;;;;;;;10.11;69.74;95982.59;4975158;28;20082;-82
2022/12/22 08:37:52;;;;;;;3.90;0.75;;;;;;;10.12;70.34;95972.97;4973980;28;20047;-81
2022/12/22 08:40:23;;;;;;;2.92;1.05;;;;;;;10.11;70.04;95976.59;4972879;28;20425;-81
2022/12/22 08:42:55;;;;;;;2.88;1.00;;;;;;;10.10;70.14;95988.81;4973203;28;20042;-81
2022/12/22 08:45:22;;;;;;;2.10;0.98;;;;;;;10.10;70.71;95978.38;4972844;28;20511;-81
2022/12/22 08:47:51;;;;;;;3.17;1.02;;;;;;;10.13;70.62;95986.81;4971468;28;20077;-82
2022/12/22 08:50:21;;;;;;;4.75;0.98;;;;;;;10.13;70.17;95973.78;4977739;28;20074;-82
2022/12/22 08:52:52;;;;;;;2.47;0.60;;;;;;;10.15;70.75;95975.19;4959476;28;20082;-82
2022/12/22 08:55:20;;;;;;;4.13;1.17;;;;;;;10.19;70.78;95976.41;4971942;28;20059;-81
2022/12/22 08:57:49;;;;;;;3.45;1.10;;;;;;;10.21;70.22;95982.25;4962604;28;20137;-82
2022/12/22 09:00:23;;;;;;;3.65;0.90;;;;;;;10.23;70.29;95988.06;4982240;28;20050;-82
2022/12/22 09:02:54;;;;;;;4.82;1.00;;;;;;;10.23;71.05;95971.59;4978580;28;20051;-80
2022/12/22 09:08:21;;;;;;;4.53;1.40;;;;;;;10.26;70.77;95956.38;5494537;23;20081;-81
2022/12/22 09:10:51;;;;;;;3.70;1.50;;;;;;;10.25;70.58;95953.97;4998795;28;20133;-82
2022/12/22 09:19:18;;;;;;;2.47;1.02;;;;;;;10.28;69.89;95966.63;5288902;23;20065;-81
2022/12/22 09:21:46;;;;;;;5.53;1.20;;;;;;;10.28;69.96;95962.22;5001599;28;20038;-81
2022/12/22 09:24:57;;;;;;;5.80;1.77;;;;;;;10.29;69.91;95966.44;5002461;28;20093;-82
2022/12/22 09:27:53;;;;;;;3.53;1.25;;;;;;;10.35;69.50;95967.47;4999048;28;20050;-81
2022/12/22 09:30:24;;;;;;;5.10;1.50;;;;;;;10.40;69.27;95974.72;5010780;23;20124;-84
2022/12/22 09:33:10;;;;;;;6.03;1.48;;;;;;;10.44;68.48;95960.28;4996882;28;20045;-85
2022/12/22 09:35:41;;;;;;;6.32;1.42;;;;;;;10.49;69.36;95983.97;4988484;28;20046;-85
2022/12/22 09:38:10;;;;;;;4.53;1.10;;;;;;;10.51;68.93;95987.19;4981863;28;21634;-81
2022/12/22 09:40:43;;;;;;;4.05;1.15;;;;;;;10.55;68.27;95979.78;4991642;28;20058;-82
2022/12/22 09:43:18;;;;;;;2.83;0.95;;;;;;;10.59;68.22;95967.97;4999681;28;20046;-81
2022/12/22 09:45:46;;;;;;;2.15;0.77;;;;;;;10.62;68.10;95959.72;4999805;28;20065;-83
2022/12/22 09:48:14;;;;;;;4.85;1.08;;;;;;;10.66;67.89;95966.94;4994950;28;20043;-82
2022/12/22 09:50:42;;;;;;;3.55;0.80;;;;;;;10.72;68.33;95989.66;4997443;28;20515;-84
2022/12/22 09:53:18;;;;;;;7.22;1.38;;;;;;;10.77;67.32;95972.59;4998428;28;20082;-81
2022/12/22 09:55:48;;;;;;;4.00;0.90;;;;;;;10.78;67.89;95964.59;4997463;28;20638;-81
2022/12/22 09:58:26;;;;;;;2.97;0.63;;;;;;;10.79;66.86;95994.88;4988888;28;20109;-82
2022/12/22 10:01:03;;;;;;;2.30;0.65;;;;;;;10.79;66.56;95960.97;4998169;28;20114;-82
2022/12/22 10:03:41;;;;;;;5.50;0.77;;;;;;;10.80;66.81;96003.50;4998744;28;20050;-81
2022/12/22 10:06:14;;;;;;;4.97;0.73;;;;;;;10.81;66.88;95984.25;4990710;28;20054;-81
2022/12/22 10:08:42;;;;;;;4.72;1.52;;;;;;;10.79;67.13;95991.47;5003020;28;20138;-82
2022/12/22 10:11:14;;;;;;;5.50;1.13;;;;;;;10.78;67.48;96021.16;4994234;28;20101;-81
2022/12/22 10:13:46;;;;;;;4.43;0.70;;;;;;;10.76;68.11;96010.94;4989781;28;20054;-82
2022/12/22 10:16:20;;;;;;;3.22;1.10;;;;;;;10.74;68.31;96017.34;5006524;28;20062;-86
2022/12/22 10:19:00;;;;;;;2.72;0.98;;;;;;;10.71;69.15;96006.31;5008367;28;20058;-86
2022/12/22 10:21:28;;;;;;;2.65;0.70;;;;;;;10.69;69.37;96007.47;5010713;28;20113;-82
2022/12/22 10:23:56;;;;;;;2.13;0.52;;;;;;;10.65;69.51;96001.09;5012108;28;20105;-90
2022/12/22 10:26:32;;;;;;;2.25;0.75;;;;;;;10.60;70.00;96006.84;5004465;28;20412;-87
2022/12/22 10:29:07;;;;;;;4.13;0.80;;;;;;;10.56;70.38;95990.03;5005646;28;20050;-87
2022/12/22 10:31:38;;;;;;;5.75;1.15;;;;;;;10.52;70.97;95994.81;5027791;28;20081;-87
2022/12/22 10:34:14;;;;;;;4.38;0.90;;;;;;;10.51;71.31;95989.78;5013492;28;20121;-84
2022/12/22 10:36:47;;;;;;;4.53;0.98;;;;;;;10.47;71.74;95988.56;4992432;28;20054;-85
2022/12/22 10:39:21;;;;;;;6.57;1.58;;;;;;;10.46;71.96;95992.97;4997780;28;20101;-85
2022/12/22 10:41:54;;;;;;;2.13;0.98;;;;;;;10.48;71.92;96001.41;5003650;28;20077;-89
2022/12/22 10:44:28;;;;;;;5.50;1.52;;;;;;;10.47;72.06;96004.22;5008422;28;20069;-85
2022/12/22 10:47:02;;;;;;;6.20;1.40;;;;;;;10.45;72.57;95995.78;5008418;28;20084;-89
2022/12/22 10:49:34;;;;;;;3.78;1.13;;;;;;;10.44;72.84;96012.44;5008245;28;20050;-84
2022/12/22 10:52:15;;;;;;;4.00;1.30;;;;;;;10.42;73.09;95996.19;5008520;28;20057;-86
2022/12/22 10:54:46;;;;;;;5.07;1.08;;;;;;;10.41;73.22;96007.63;5010425;28;20081;-85
2022/12/22 10:57:30;;;;;;;3.47;1.08;;;;;;;10.41;73.79;95995.38;5007849;28;20085;-86
2022/12/22 11:00:21;;;;;;;5.53;1.08;;;;;;;10.39;73.47;95997.38;5004963;28;20066;-87
2022/12/22 11:02:52;;;;;;;4.30;1.05;;;;;;;10.38;73.65;96010.59;5006384;28;20065;-87
2022/12/22 11:05:20;;;;;;;3.30;0.85;;;;;;;10.35;73.49;95990.16;5010780;28;20050;-85
2022/12/22 11:07:50;;;;;;;3.58;0.75;;;;;;;10.35;73.99;95990.16;5006779;28;20069;-83
2022/12/22 11:10:27;;;;;;;3.03;1.00;;;;;;;10.35;74.00;95983.13;5006455;28;20081;-83
2022/12/22 11:13:19;;;;;;;2.28;0.80;;;;;;;10.35;74.40;95997.97;5006254;28;20046;-88
2022/12/22 11:15:55;;;;;;;2.47;1.33;;;;;;;10.33;74.22;96026.03;5000041;28;20050;-85
2022/12/22 11:18:41;;;;;;;5.35;1.20;;;;;;;10.30;74.50;96009.78;5006842;28;20065;-86
2022/12/22 11:21:32;;;;;;;5.75;1.35;;;;;;;10.28;74.76;95998.72;5006596;28;20046;-87
2022/12/22 11:24:42;;;;;;;2.95;1.10;;;;;;;10.27;75.17;95994.47;4986370;28;20042;-84
2022/12/22 11:27:27;;;;;;;3.63;0.90;;;;;;;10.27;74.95;95986.66;5000983;28;20505;-89
2022/12/22 11:30:11;;;;;;;3.22;0.75;;;;;;;10.27;74.64;95983.25;5006493;28;20050;-87
2022/12/22 11:33:04;;;;;;;3.10;0.80;;;;;;;10.26;75.12;95987.66;5003961;28;20050;-89
2022/12/22 11:35:59;;;;;;;3.15;1.00;;;;;;;10.26;74.53;95995.50;4990289;28;20055;-90
2022/12/22 11:39:04;;;;;;;4.78;0.93;;;;;;;10.25;74.67;95982.63;5004478;28;20066;-91
2022/12/22 11:42:07;;;;;;;5.05;0.80;;;;;;;10.24;74.54;95976.63;5007147;28;20058;-87
2022/12/22 11:45:12;;;;;;;5.20;1.63;;;;;;;10.25;74.60;95977.44;5006016;28;20146;-90
2022/12/22 11:48:08;;;;;;;3.47;0.93;;;;;;;10.28;74.82;95992.69;5004422;28;20061;-88
2022/12/22 11:50:45;;;;;;;3.00;0.98;;;;;;;10.29;74.61;95991.72;5000760;28;20077;-81
2022/12/22 11:54:07;;;;;;;3.80;0.60;;;;;;;10.29;74.70;95991.72;5000400;28;20112;-85
2022/12/22 12:00:23;;;;;;;5.32;1.30;;;;;;;10.30;75.06;95988.91;5004076;28;20046;-85
2022/12/22 12:04:04;;;;;;;5.20;1.48;;;;;;;10.30;74.93;95982.91;5005905;28;20169;-85
2022/12/22 12:07:08;;;;;;;5.25;1.30;;;;;;;10.30;74.83;95982.91;5001723;28;20428;-89
2022/12/22 12:09:53;;;;;;;3.25;1.50;;;;;;;10.31;74.78;95989.72;5000430;28;20114;-87
2022/12/22 12:12:50;;;;;;;7.75;1.70;;;;;;;10.32;75.04;95986.13;5003554;28;20050;-86
2022/12/22 12:15:32;;;;;;;3.47;1.27;;;;;;;10.33;74.34;95994.75;5022545;28;20053;-89
2022/12/22 12:18:32;;;;;;;5.93;1.00;;;;;;;10.32;74.59;95999.16;5008239;28;20110;-89
2022/12/22 12:21:45;;;;;;;5.03;1.25;;;;;;;10.34;74.45;96009.38;4987580;28;20053;-88
2022/12/22 12:25:11;;;;;;;6.45;1.67;;;;;;;10.33;74.38;96013.00;5003203;28;20516;-85
2022/12/22 12:28:07;;;;;;;6.43;1.77;;;;;;;10.31;74.22;96002.75;4995937;28;20058;-84
2022/12/22 12:31:01;;;;;;;4.43;1.48;;;;;;;10.30;74.00;96016.81;5003478;28;20070;-85
2022/12/22 12:33:49;;;;;;;5.88;1.25;;;;;;;10.30;73.93;96020.22;4996691;28;20073;-85
2022/12/22 12:40:00;;;;;;;4.47;1.52;;;;;;;10.31;74.28;96029.63;5004249;28;20511;-87
2022/12/22 12:45:54;;;;;;;5.40;1.50;;;;;;;10.32;73.99;96027.84;5007548;28;20038;-84
2022/12/22 12:48:59;;;;;;;4.70;1.20;;;;;;;10.35;74.24;96018.81;5008444;28;20057;-82
2022/12/22 12:51:55;;;;;;;4.85;1.30;;;;;;;10.34;73.90;96012.78;4945645;29;20051;-82
2022/12/22 12:54:55;;;;;;;4.43;1.08;;;;;;;10.34;73.87;96015.38;4997844;28;20141;-81
2022/12/22 12:57:54;;;;;;;7.25;1.70;;;;;;;10.35;73.97;96013.59;4998478;28;20153;-89
2022/12/22 13:00:45;;;;;;;8.88;1.60;;;;;;;10.36;73.97;96007.38;5009725;28;20078;-83
2022/12/22 13:03:37;;;;;;;2.80;0.82;;;;;;;10.34;73.69;96010.19;5016617;28;20046;-86
2022/12/22 13:06:50;;;;;;;6.93;2.63;;;;;;;10.35;73.85;96022.22;5007988;28;20065;-81
2022/12/22 13:09:20;;;;;;;5.13;1.85;;;;;;;10.35;73.96;96029.25;5017169;28;20061;-84
2022/12/22 13:12:38;;;;;;;7.50;1.92;;;;;;;10.36;73.95;96034.25;5017790;28;20050;-82
2022/12/22 13:15:28;;;;;;;5.88;2.00;;;;;;;10.38;74.55;96032.25;5012359;28;20092;-83
2022/12/22 13:17:56;;;;;;;11.07;4.25;;;;;;;10.39;74.20;96040.91;5008565;28;20149;-81
2022/12/22 13:20:27;;;;;;;8.15;3.92;;;;;;;10.39;74.53;96039.09;5009411;28;20109;-80
2022/12/22 13:22:58;;;;;;;5.90;2.40;;;;;;;10.40;74.71;96045.09;5004406;28;20148;-84
2022/12/22 13:25:36;;;;;;;9.45;4.03;;;;;;;10.40;74.71;96047.72;5007071;28;20106;-82
2022/12/22 13:28:06;;;;;;;6.55;2.60;;;;;;;10.39;74.38;96054.75;5008043;28;20520;-82
2022/12/22 13:30:33;;;;;;;8.93;2.88;;;;;;;10.39;74.59;96043.50;5001424;28;20412;-79
2022/12/22 13:33:01;;;;;;;2.97;1.15;;;;;;;10.39;74.42;96059.94;5008871;28;20061;-85
2022/12/22 13:35:37;;;;;;;4.50;1.75;;;;;;;10.39;74.84;96061.75;5000476;28;20068;-85
2022/12/22 13:38:31;;;;;;;8.85;3.05;;;;;;;10.40;74.90;96052.94;5008075;28;20054;-82
2022/12/22 13:41:15;;;;;;;7.38;1.45;;;;;;;10.40;75.20;96060.75;4990519;28;20050;-83
2022/12/22 13:43:56;;;;;;;3.70;1.00;;;;;;;10.40;74.94;96065.97;5011619;28;20058;-84
2022/12/22 13:46:26;;;;;;;4.75;1.00;;;;;;;10.38;74.90;96058.31;4990140;28;20600;-80
2022/12/22 13:48:59;;;;;;;4.45;1.20;;;;;;;10.38;74.88;96075.78;4996731;28;20126;-81
2022/12/22 13:51:34;;;;;;;3.67;1.35;;;;;;;10.36;75.15;96078.56;4988443;28;20081;-80
2022/12/22 13:54:14;;;;;;;5.35;2.17;;;;;;;10.36;75.03;96077.78;5003087;28;20055;-81
2022/12/22 13:56:45;;;;;;;10.80;4.10;;;;;;;10.34;75.18;96083.16;4998043;28;20053;-84
2022/12/22 13:59:28;;;;;;;7.18;2.72;;;;;;;10.34;75.86;96100.63;5002428;28;20723;-85
2022/12/22 14:01:59;;;;;;;;;;;;;;;10.34;75.48;96085.78;5007126;28;20137;-83
2022/12/22 14:04:28;;;;;;;7.22;3.00;;;;;;;10.31;75.10;96096.59;5003933;28;20372;-82
2022/12/22 14:06:57;;;;;;;8.73;2.58;;;;;;;10.29;75.17;96101.19;5001261;28;20070;-81
2022/12/22 14:09:27;;;;;;;7.68;4.22;;;;;;;10.27;75.51;96109.19;5004078;28;20078;-80
2022/12/22 14:12:03;;;;;;;13.00;6.15;;;;;;;10.26;75.40;96102.38;5003359;28;20085;-82
2022/12/22 14:14:37;;;;;;;15.23;7.35;;;;;;;10.26;75.82;96106.78;5001263;28;20050;-80
2022/12/22 14:17:17;;;;;;;5.97;2.08;;;;;;;10.24;75.62;96106.97;5000302;28;20528;-82
2022/12/22 14:19:44;;;;;;;6.90;3.10;;;;;;;10.24;75.58;96113.97;5001717;28;20054;-82
2022/12/22 14:22:16;;;;;;;5.68;3.65;;;;;;;10.23;75.81;96121.00;5002970;28;20058;-81
2022/12/22 14:24:49;;;;;;;5.93;1.75;;;;;;;10.21;75.83;96120.38;4991381;28;20078;-80
2022/12/22 14:27:23;;;;;;;5.45;1.40;;;;;;;10.20;75.92;96123.97;4998671;28;20077;-82
2022/12/22 14:30:02;;;;;;;6.90;1.55;;;;;;;10.19;76.32;96121.56;4998172;28;20073;-81
2022/12/22 14:32:37;;;;;;;7.93;1.52;;;;;;;10.18;76.68;96123.34;4994145;28;20064;-82
2022/12/22 14:35:16;;;;;;;6.13;1.83;;;;;;;10.19;76.73;96138.03;5000590;28;20057;-81
2022/12/22 14:37:48;;;;;;;7.60;2.20;;;;;;;10.18;77.00;96131.19;5002025;28;21585;-87
2022/12/22 14:40:30;;;;;;;7.63;2.00;;;;;;;10.18;76.96;96141.59;4997612;28;20042;-80
2022/12/22 14:43:23;;;;;;;9.20;2.00;;;;;;;10.19;77.35;96148.44;4997284;28;20500;-81
2022/12/22 14:46:02;;;;;;;8.32;2.38;;;;;;;10.19;77.10;96132.81;4999150;28;20512;-80
2022/12/22 14:48:34;;;;;;;6.28;2.25;;;;;;;10.17;77.06;96140.00;4996836;28;20047;-82
2022/12/22 14:51:03;;;;;;;9.15;2.20;;;;;;;10.17;77.14;96140.00;5000512;28;20061;-82
2022/12/22 14:53:38;;;;;;;7.55;3.40;;;;;;;10.18;77.31;96151.22;4999115;28;20515;-81
2022/12/22 14:56:12;;;;;;;5.80;1.58;;;;;;;10.17;77.46;96160.84;4999895;28;20081;-83
2022/12/22 14:58:42;;;;;;;7.53;1.85;;;;;;;10.16;77.11;96169.66;4982257;28;20054;-80
2022/12/22 15:01:26;;;;;;;9.10;2.03;;;;;;;10.16;77.50;96171.47;4996872;28;20056;-82
2022/12/22 15:04:19;;;;;;;7.28;1.52;;;;;;;10.15;77.67;96172.47;5001099;28;20054;-81
2022/12/22 15:07:06;;;;;;;5.72;1.65;;;;;;;10.15;77.55;96173.28;5000672;28;20058;-80
2022/12/22 15:09:34;;;;;;;8.10;1.83;;;;;;;10.13;77.37;96175.25;5002467;28;20054;-81
2022/12/22 15:12:28;;;;;;;6.38;2.08;;;;;;;10.14;77.87;96176.06;4993520;28;20050;-81
2022/12/22 15:15:00;;;;;;;7.55;2.30;;;;;;;10.14;77.98;96195.09;5003636;28;20516;-80
2022/12/22 15:17:36;;;;;;;7.30;2.38;;;;;;;10.14;78.35;96192.50;4989554;28;20106;-82
2022/12/22 15:20:13;;;;;;;8.52;3.20;;;;;;;10.15;78.25;96198.53;4992411;28;20122;-80
2022/12/22 15:22:41;;;;;;;9.32;2.88;;;;;;;10.12;78.28;96194.47;5002081;28;20045;-87
2022/12/22 15:25:14;;;;;;;6.53;2.00;;;;;;;10.10;78.45;96201.69;5012642;28;20073;-88
2022/12/22 15:27:42;;;;;;;;;;;;;;;10.12;78.43;96210.13;5011194;28;20051;-85
2022/12/22 15:30:12;;;;;;;4.90;1.95;;;;;;;10.10;78.11;96201.69;5031231;23;19929;-78
2022/12/22 15:32:42;;;;;;;8.10;1.65;;;;;;;10.08;78.29;96199.28;4992302;28;20054;-80
2022/12/22 15:35:23;;;;;;;7.57;1.58;;;;;;;10.08;78.46;96199.28;4993042;28;20408;-79
2022/12/22 15:37:51;;;;;;;8.00;1.80;;;;;;;10.09;78.18;96194.88;4973572;28;20050;-78
2022/12/22 15:40:21;;;;;;;4.63;1.50;;;;;;;10.08;78.30;96199.28;4983362;28;20137;-81
2022/12/22 15:42:57;;;;;;;7.25;1.70;;;;;;;10.07;78.11;96182.03;5001952;28;20046;-81
2022/12/22 15:45:31;;;;;;;7.03;1.65;;;;;;;10.08;78.02;96186.25;5002235;28;20054;-81
2022/12/22 15:48:09;;;;;;;3.65;1.42;;;;;;;10.10;77.58;96191.25;5002548;28;20061;-81
2022/12/22 15:50:52;;;;;;;5.32;2.35;;;;;;;10.10;77.53;96196.47;4976889;28;20085;-80
2022/12/22 15:53:23;;;;;;;4.95;2.28;;;;;;;10.11;77.64;96196.28;4989352;28;20065;-80
2022/12/22 15:56:10;;;;;;;7.90;1.73;;;;;;;10.13;76.98;96192.69;4999161;28;20140;-81
2022/12/22 16:01:47;;;;;;;7.00;1.95;;;;;;;10.12;76.72;96204.91;4995494;28;20050;-80
2022/12/22 16:04:54;;;;;;;10.15;2.30;;;;;;;10.11;76.84;96196.28;5003618;28;20046;-81
2022/12/22 16:07:27;;;;;;;6.80;1.50;;;;;;;10.12;76.79;96204.91;4989873;28;20059;-80
2022/12/22 16:09:59;;;;;;;5.65;1.67;;;;;;;10.12;76.15;96199.69;4998566;28;20050;-79
2022/12/22 16:12:41;;;;;;;5.45;1.50;;;;;;;10.12;76.10;96199.69;4994997;28;20065;-81
2022/12/22 16:15:24;;;;;;;9.18;1.90;;;;;;;10.13;76.47;96196.13;4994459;28;20122;-80
2022/12/22 16:18:19;;;;;;;6.85;2.03;;;;;;;10.13;76.41;96188.28;4995682;28;20057;-81
2022/12/22 16:24:12;;;;;;;6.55;2.00;;;;;;;10.14;75.67;96192.50;4985325;28;20523;-80
2022/12/22 16:26:56;;;;;;;5.88;2.00;;;;;;;10.13;75.75;96190.09;4992944;28;20043;-79
2022/12/22 16:32:26;;;;;;;8.50;1.55;;;;;;;10.10;75.40;96197.31;5322702;23;20097;-80
2022/12/22 16:40:54;;;;;;;9.57;1.77;;;;;;;10.07;75.13;96215.91;4998661;28;20556;-82
2022/12/22 16:43:34;;;;;;;7.65;1.83;;;;;;;10.06;75.62;96206.47;5000348;28;20062;-80
2022/12/22 16:46:26;;;;;;;4.80;1.95;;;;;;;10.05;75.40;96210.06;5003899;28;20049;-80
2022/12/22 16:49:01;;;;;;;8.90;2.25;;;;;;;10.04;75.10;96208.47;5004291;28;20054;-80
2022/12/22 16:51:36;;;;;;;6.63;2.08;;;;;;;10.03;75.05;96213.84;5005685;28;20058;-80
2022/12/22 16:57:41;;;;;;;6.82;1.65;;;;;;;10.04;74.49;96212.88;5880361;22;20111;-82
2022/12/22 17:03:47;;;;;;;6.90;2.35;;;;;;;10.07;74.36;96222.91;4944310;29;20438;-84
2022/12/22 17:10:08;;;;;;;10.00;2.08;;;;;;;10.04;74.31;96213.69;4915599;29;20096;-81
2022/12/22 17:28:10;;;;;;;6.25;2.22;;;;;;;10.10;74.05;96205.13;5231123;23;20058;-82
2022/12/22 17:30:40;;;;;;;9.48;3.28;;;;;;;10.10;74.00;96196.47;5002896;28;20046;-81
2022/12/22 17:37:10;;;;;;;14.65;2.55;;;;;;;10.11;73.73;96182.47;4979815;28;20604;-82
2022/12/22 17:40:56;;;;;;;6.85;2.92;;;;;;;10.11;73.19;96179.84;4996534;28;20062;-82
2022/12/22 17:51:18;;;;;;;9.25;2.83;;;;;;;10.15;73.75;96169.88;5134024;23;20469;-82
2022/12/22 17:58:09;;;;;;;13.68;4.40;;;;;;;10.14;73.72;96150.78;5019001;28;20117;-82
2022/12/22 18:14:59;;;;;;;14.18;4.85;;;;;;;10.12;74.69;96131.94;4970616;28;20527;-81
2022/12/22 18:17:29;;;;;;;8.32;3.42;;;;;;;10.11;74.23;96135.56;4973699;28;20055;-81
2022/12/22 18:20:03;;;;;;;12.65;4.43;;;;;;;10.12;74.05;96124.13;4963840;28;20485;-81
2022/12/22 18:23:01;;;;;;;11.60;3.42;;;;;;;10.10;73.55;96131.31;4937239;29;20051;-82
2022/12/22 18:25:31;;;;;;;9.75;3.88;;;;;;;10.10;73.05;96129.53;4948628;29;20141;-81
2022/12/22 18:28:05;;;;;;;11.13;4.25;;;;;;;10.09;73.08;96129.72;5282537;23;20050;-82
2022/12/22 18:37:13;;;;;;;18.53;7.07;;;;;;;10.09;71.71;96121.91;5594604;23;20052;-81
2022/12/22 18:47:27;;;;;;;13.52;4.70;;;;;;;10.10;71.79;96123.50;5212670;23;20156;-81
2022/12/22 18:50:04;;;;;;;15.57;4.82;;;;;;;10.11;71.18;96096.47;4996574;28;20070;-81
2022/12/22 18:52:40;;;;;;;11.93;4.43;;;;;;;10.11;70.91;96088.63;4979039;28;20051;-81
2022/12/22 18:58:14;;;;;;;45.70;27.45;;;;;;;10.11;71.00;96091.25;4987842;28;20060;-81
2022/12/22 19:00:47;;;;;;;32.38;16.00;;;;;;;10.13;71.40;96086.66;4990837;28;20107;-81
2022/12/22 19:03:29;;;;;;;12.85;5.50;;;;;;;10.14;70.72;96083.03;4982454;28;20440;-81